sensor_id;sensor_type;location;lat;lon;timestamp;temperature;humidity
20726;DHT22;10524;48.132;8.518;2022-09-06T00:00:36;13.30;99.90
20726;DHT22;10524;48.132;8.518;2022-09-06T00:03:03;13.40;99.90
20726;DHT22;10524;48.132;8.518;2022-09-06T00:05:30;13.40;99.90
20726;DHT22;10524;48.132;8.518;2022-09-06T00:08:00;13.30;99.90
20726;DHT22;10524;48.132;8.518;2022-09-06T00:10:27;13.30;99.90
20726;DHT22;10524;48.132;8.518;2022-09-06T00:12:53;13.30;99.90
20726;DHT22;10524;48.132;8.518;2022-09-06T00:15:19;13.30;99.90
20726;DHT22;10524;48.132;8.518;2022-09-06T00:17:45;13.30;99.90
20726;DHT22;10524;48.132;8.518;2022-09-06T00:20:11;13.20;99.90
20726;DHT22;10524;48.132;8.518;2022-09-06T00:22:37;13.20;99.90
20726;DHT22;10524;48.132;8.518;2022-09-06T00:25:04;13.20;99.90
20726;DHT22;10524;48.132;8.518;2022-09-06T00:27:31;13.10;99.90
20726;DHT22;10524;48.132;8.518;2022-09-06T00:29:56;13.10;99.90
20726;DHT22;10524;48.132;8.518;2022-09-06T00:32:22;13.10;99.90
20726;DHT22;10524;48.132;8.518;2022-09-06T00:34:48;13.10;99.90
20726;DHT22;10524;48.132;8.518;2022-09-06T00:37:13;13.20;99.90
20726;DHT22;10524;48.132;8.518;2022-09-06T00:39:39;13.10;99.90
20726;DHT22;10524;48.132;8.518;2022-09-06T00:42:11;13.10;99.90
20726;DHT22;10524;48.132;8.518;2022-09-06T00:44:38;13.10;99.90
20726;DHT22;10524;48.132;8.518;2022-09-06T00:47:05;13.00;99.90
20726;DHT22;10524;48.132;8.518;2022-09-06T00:49:35;13.00;99.90
20726;DHT22;10524;48.132;8.518;2022-09-06T00:52:07;13.00;99.90
20726;DHT22;10524;48.132;8.518;2022-09-06T00:54:34;13.00;99.90
20726;DHT22;10524;48.132;8.518;2022-09-06T00:57:00;13.00;99.90
20726;DHT22;10524;48.132;8.518;2022-09-06T00:59:28;13.00;99.90
20726;DHT22;10524;48.132;8.518;2022-09-06T01:01:55;13.00;99.90
20726;DHT22;10524;48.132;8.518;2022-09-06T01:04:22;13.00;99.90
20726;DHT22;10524;48.132;8.518;2022-09-06T01:28:47;13.10;99.90
20726;DHT22;10524;48.132;8.518;2022-09-06T01:31:32;13.10;99.90
20726;DHT22;10524;48.132;8.518;2022-09-06T01:38:58;13.00;99.90
20726;DHT22;10524;48.132;8.518;2022-09-06T01:41:24;13.00;99.90
20726;DHT22;10524;48.132;8.518;2022-09-06T01:43:50;13.10;99.90
20726;DHT22;10524;48.132;8.518;2022-09-06T01:54:25;13.20;99.90
20726;DHT22;10524;48.132;8.518;2022-09-06T02:02:13;13.20;99.90
20726;DHT22;10524;48.132;8.518;2022-09-06T02:04:50;13.20;99.90
20726;DHT22;10524;48.132;8.518;2022-09-06T02:07:31;13.20;99.90
20726;DHT22;10524;48.132;8.518;2022-09-06T02:12:31;13.20;99.90
20726;DHT22;10524;48.132;8.518;2022-09-06T02:15:02;13.20;99.90
20726;DHT22;10524;48.132;8.518;2022-09-06T02:17:36;13.20;99.90
20726;DHT22;10524;48.132;8.518;2022-09-06T02:22:31;13.00;99.90
20726;DHT22;10524;48.132;8.518;2022-09-06T02:24:59;12.90;99.90
20726;DHT22;10524;48.132;8.518;2022-09-06T02:27:26;12.90;99.90
20726;DHT22;10524;48.132;8.518;2022-09-06T02:29:52;12.80;99.90
20726;DHT22;10524;48.132;8.518;2022-09-06T02:32:22;12.80;99.90
20726;DHT22;10524;48.132;8.518;2022-09-06T02:34:50;12.70;99.90
20726;DHT22;10524;48.132;8.518;2022-09-06T02:37:16;12.80;99.90
20726;DHT22;10524;48.132;8.518;2022-09-06T02:39:42;12.80;99.90
20726;DHT22;10524;48.132;8.518;2022-09-06T02:42:09;12.80;99.90
20726;DHT22;10524;48.132;8.518;2022-09-06T02:44:36;12.90;99.90
20726;DHT22;10524;48.132;8.518;2022-09-06T02:47:02;12.90;99.90
20726;DHT22;10524;48.132;8.518;2022-09-06T02:49:28;12.90;99.90
20726;DHT22;10524;48.132;8.518;2022-09-06T02:51:54;12.90;99.90
20726;DHT22;10524;48.132;8.518;2022-09-06T02:54:21;13.00;99.90
20726;DHT22;10524;48.132;8.518;2022-09-06T02:56:47;13.10;99.90
20726;DHT22;10524;48.132;8.518;2022-09-06T02:59:12;13.20;99.90
20726;DHT22;10524;48.132;8.518;2022-09-06T03:01:38;13.30;99.90
20726;DHT22;10524;48.132;8.518;2022-09-06T03:04:04;13.30;99.90
20726;DHT22;10524;48.132;8.518;2022-09-06T03:06:30;13.40;99.90
20726;DHT22;10524;48.132;8.518;2022-09-06T03:08:55;13.40;99.90
20726;DHT22;10524;48.132;8.518;2022-09-06T03:11:21;13.40;99.90
20726;DHT22;10524;48.132;8.518;2022-09-06T03:13:47;13.40;99.90
20726;DHT22;10524;48.132;8.518;2022-09-06T03:16:15;13.50;99.90
20726;DHT22;10524;48.132;8.518;2022-09-06T03:18:40;13.50;99.90
20726;DHT22;10524;48.132;8.518;2022-09-06T03:21:06;13.60;99.90
20726;DHT22;10524;48.132;8.518;2022-09-06T03:23:32;13.70;99.90
20726;DHT22;10524;48.132;8.518;2022-09-06T03:25:57;13.80;99.90
20726;DHT22;10524;48.132;8.518;2022-09-06T03:28:23;13.90;99.90
20726;DHT22;10524;48.132;8.518;2022-09-06T03:30:50;14.00;99.90
20726;DHT22;10524;48.132;8.518;2022-09-06T03:33:16;14.00;99.90
20726;DHT22;10524;48.132;8.518;2022-09-06T03:35:53;14.10;99.90
20726;DHT22;10524;48.132;8.518;2022-09-06T03:38:20;14.10;99.90
20726;DHT22;10524;48.132;8.518;2022-09-06T03:40:47;14.10;99.90
20726;DHT22;10524;48.132;8.518;2022-09-06T03:43:14;14.10;99.90
20726;DHT22;10524;48.132;8.518;2022-09-06T03:45:44;14.10;99.90
20726;DHT22;10524;48.132;8.518;2022-09-06T03:48:10;14.10;99.90
20726;DHT22;10524;48.132;8.518;2022-09-06T03:50:35;14.10;99.90
20726;DHT22;10524;48.132;8.518;2022-09-06T03:53:01;14.00;99.90
20726;DHT22;10524;48.132;8.518;2022-09-06T03:55:27;14.00;99.90
20726;DHT22;10524;48.132;8.518;2022-09-06T03:57:53;13.90;99.90
20726;DHT22;10524;48.132;8.518;2022-09-06T04:00:18;13.80;99.90
20726;DHT22;10524;48.132;8.518;2022-09-06T04:02:44;13.80;99.90
20726;DHT22;10524;48.132;8.518;2022-09-06T04:05:09;13.60;99.90
20726;DHT22;10524;48.132;8.518;2022-09-06T04:07:35;13.60;99.90
20726;DHT22;10524;48.132;8.518;2022-09-06T04:10:02;13.50;99.90
20726;DHT22;10524;48.132;8.518;2022-09-06T04:12:28;13.50;99.90
20726;DHT22;10524;48.132;8.518;2022-09-06T04:14:53;13.50;99.90
20726;DHT22;10524;48.132;8.518;2022-09-06T04:17:19;13.50;99.90
20726;DHT22;10524;48.132;8.518;2022-09-06T04:19:45;13.60;99.90
20726;DHT22;10524;48.132;8.518;2022-09-06T04:22:10;13.70;99.90
20726;DHT22;10524;48.132;8.518;2022-09-06T04:24:36;13.70;99.90
20726;DHT22;10524;48.132;8.518;2022-09-06T04:27:01;13.60;99.90
20726;DHT22;10524;48.132;8.518;2022-09-06T04:29:27;13.50;99.90
20726;DHT22;10524;48.132;8.518;2022-09-06T04:31:53;13.30;99.90
20726;DHT22;10524;48.132;8.518;2022-09-06T04:34:18;13.20;99.90
20726;DHT22;10524;48.132;8.518;2022-09-06T04:36:44;13.10;99.90
20726;DHT22;10524;48.132;8.518;2022-09-06T04:39:09;13.00;99.90
20726;DHT22;10524;48.132;8.518;2022-09-06T04:41:35;13.00;99.90
20726;DHT22;10524;48.132;8.518;2022-09-06T04:44:01;13.00;99.90
20726;DHT22;10524;48.132;8.518;2022-09-06T04:46:27;12.90;99.90
20726;DHT22;10524;48.132;8.518;2022-09-06T04:48:54;12.90;99.90
20726;DHT22;10524;48.132;8.518;2022-09-06T04:51:20;13.00;99.90
20726;DHT22;10524;48.132;8.518;2022-09-06T04:53:47;13.00;99.90
20726;DHT22;10524;48.132;8.518;2022-09-06T04:56:15;13.00;99.90
20726;DHT22;10524;48.132;8.518;2022-09-06T04:58:42;13.10;99.90
20726;DHT22;10524;48.132;8.518;2022-09-06T05:01:08;13.10;99.90
20726;DHT22;10524;48.132;8.518;2022-09-06T05:03:33;13.10;99.90
20726;DHT22;10524;48.132;8.518;2022-09-06T05:06:23;13.10;99.90
20726;DHT22;10524;48.132;8.518;2022-09-06T05:08:49;13.20;99.90
20726;DHT22;10524;48.132;8.518;2022-09-06T05:11:15;13.20;99.90
20726;DHT22;10524;48.132;8.518;2022-09-06T05:13:41;13.30;99.90
20726;DHT22;10524;48.132;8.518;2022-09-06T05:16:08;13.50;99.90
20726;DHT22;10524;48.132;8.518;2022-09-06T05:18:34;13.60;99.90
20726;DHT22;10524;48.132;8.518;2022-09-06T05:20:59;13.70;99.90
20726;DHT22;10524;48.132;8.518;2022-09-06T05:23:26;13.90;99.90
20726;DHT22;10524;48.132;8.518;2022-09-06T05:25:52;14.20;99.90
20726;DHT22;10524;48.132;8.518;2022-09-06T05:28:18;14.90;99.90
20726;DHT22;10524;48.132;8.518;2022-09-06T05:30:45;15.50;99.90
20726;DHT22;10524;48.132;8.518;2022-09-06T05:33:12;16.10;99.90
20726;DHT22;10524;48.132;8.518;2022-09-06T05:35:38;16.80;99.90
20726;DHT22;10524;48.132;8.518;2022-09-06T05:38:04;17.70;99.90
20726;DHT22;10524;48.132;8.518;2022-09-06T05:40:30;18.40;99.90
20726;DHT22;10524;48.132;8.518;2022-09-06T05:42:56;18.80;99.90
20726;DHT22;10524;48.132;8.518;2022-09-06T05:45:22;19.00;99.90
20726;DHT22;10524;48.132;8.518;2022-09-06T05:47:47;19.40;99.90
20726;DHT22;10524;48.132;8.518;2022-09-06T05:50:13;19.80;99.90
20726;DHT22;10524;48.132;8.518;2022-09-06T05:52:38;20.10;99.90
20726;DHT22;10524;48.132;8.518;2022-09-06T05:55:05;20.00;99.90
20726;DHT22;10524;48.132;8.518;2022-09-06T05:57:31;20.40;99.90
20726;DHT22;10524;48.132;8.518;2022-09-06T05:59:57;21.20;99.90
20726;DHT22;10524;48.132;8.518;2022-09-06T06:02:23;21.50;99.90
20726;DHT22;10524;48.132;8.518;2022-09-06T06:04:49;22.00;99.90
20726;DHT22;10524;48.132;8.518;2022-09-06T06:07:16;22.90;99.90
20726;DHT22;10524;48.132;8.518;2022-09-06T06:09:42;23.40;99.90
20726;DHT22;10524;48.132;8.518;2022-09-06T06:12:08;23.20;99.90
20726;DHT22;10524;48.132;8.518;2022-09-06T06:14:34;23.40;99.90
20726;DHT22;10524;48.132;8.518;2022-09-06T06:16:59;23.20;99.90
20726;DHT22;10524;48.132;8.518;2022-09-06T06:19:26;22.80;99.90
20726;DHT22;10524;48.132;8.518;2022-09-06T06:21:52;21.70;99.90
20726;DHT22;10524;48.132;8.518;2022-09-06T06:24:18;20.90;99.90
20726;DHT22;10524;48.132;8.518;2022-09-06T06:26:44;20.40;99.90
20726;DHT22;10524;48.132;8.518;2022-09-06T06:29:09;20.60;99.90
20726;DHT22;10524;48.132;8.518;2022-09-06T06:31:37;20.80;99.90
20726;DHT22;10524;48.132;8.518;2022-09-06T06:34:03;20.80;99.90
20726;DHT22;10524;48.132;8.518;2022-09-06T06:36:29;21.60;99.90
20726;DHT22;10524;48.132;8.518;2022-09-06T06:38:56;23.50;99.90
20726;DHT22;10524;48.132;8.518;2022-09-06T06:41:24;25.60;99.90
20726;DHT22;10524;48.132;8.518;2022-09-06T06:43:51;26.60;99.90
20726;DHT22;10524;48.132;8.518;2022-09-06T06:46:18;27.00;99.90
20726;DHT22;10524;48.132;8.518;2022-09-06T06:48:45;27.50;99.90
20726;DHT22;10524;48.132;8.518;2022-09-06T06:51:15;28.80;99.90
20726;DHT22;10524;48.132;8.518;2022-09-06T06:53:41;30.80;99.90
20726;DHT22;10524;48.132;8.518;2022-09-06T06:56:16;31.90;99.90
20726;DHT22;10524;48.132;8.518;2022-09-06T06:58:42;30.40;99.90
20726;DHT22;10524;48.132;8.518;2022-09-06T07:01:09;28.90;99.90
20726;DHT22;10524;48.132;8.518;2022-09-06T07:03:35;27.60;99.90
20726;DHT22;10524;48.132;8.518;2022-09-06T07:06:01;26.80;99.90
20726;DHT22;10524;48.132;8.518;2022-09-06T07:08:27;26.10;99.90
20726;DHT22;10524;48.132;8.518;2022-09-06T07:10:53;25.30;99.90
20726;DHT22;10524;48.132;8.518;2022-09-06T07:13:18;24.80;99.90
20726;DHT22;10524;48.132;8.518;2022-09-06T07:15:44;24.80;99.90
20726;DHT22;10524;48.132;8.518;2022-09-06T07:18:10;24.50;99.90
20726;DHT22;10524;48.132;8.518;2022-09-06T07:20:36;24.00;99.90
20726;DHT22;10524;48.132;8.518;2022-09-06T07:23:04;23.30;99.90
20726;DHT22;10524;48.132;8.518;2022-09-06T07:25:33;22.80;99.90
20726;DHT22;10524;48.132;8.518;2022-09-06T07:28:00;22.50;99.90
20726;DHT22;10524;48.132;8.518;2022-09-06T07:30:27;22.30;99.90
20726;DHT22;10524;48.132;8.518;2022-09-06T07:32:53;22.10;99.90
20726;DHT22;10524;48.132;8.518;2022-09-06T07:35:19;22.00;99.90
20726;DHT22;10524;48.132;8.518;2022-09-06T07:37:55;22.10;99.90
20726;DHT22;10524;48.132;8.518;2022-09-06T07:40:22;22.20;99.90
20726;DHT22;10524;48.132;8.518;2022-09-06T07:42:48;22.40;99.90
20726;DHT22;10524;48.132;8.518;2022-09-06T07:45:14;22.70;99.90
20726;DHT22;10524;48.132;8.518;2022-09-06T07:47:40;23.00;99.90
20726;DHT22;10524;48.132;8.518;2022-09-06T07:50:06;23.70;99.90
20726;DHT22;10524;48.132;8.518;2022-09-06T07:52:32;24.60;99.90
20726;DHT22;10524;48.132;8.518;2022-09-06T07:54:58;25.60;99.90
20726;DHT22;10524;48.132;8.518;2022-09-06T07:57:24;27.00;99.90
20726;DHT22;10524;48.132;8.518;2022-09-06T07:59:49;28.00;99.90
20726;DHT22;10524;48.132;8.518;2022-09-06T08:02:16;29.00;99.90
20726;DHT22;10524;48.132;8.518;2022-09-06T08:04:42;29.10;99.90
20726;DHT22;10524;48.132;8.518;2022-09-06T08:07:08;29.40;99.90
20726;DHT22;10524;48.132;8.518;2022-09-06T08:09:34;28.80;99.90
20726;DHT22;10524;48.132;8.518;2022-09-06T08:12:00;27.60;99.90
20726;DHT22;10524;48.132;8.518;2022-09-06T08:14:31;26.90;99.90
20726;DHT22;10524;48.132;8.518;2022-09-06T08:16:57;26.60;99.90
20726;DHT22;10524;48.132;8.518;2022-09-06T08:19:23;26.50;99.90
20726;DHT22;10524;48.132;8.518;2022-09-06T08:21:48;26.90;99.90
20726;DHT22;10524;48.132;8.518;2022-09-06T08:24:14;27.60;99.90
20726;DHT22;10524;48.132;8.518;2022-09-06T08:26:40;27.70;99.90
20726;DHT22;10524;48.132;8.518;2022-09-06T08:29:09;27.30;99.90
20726;DHT22;10524;48.132;8.518;2022-09-06T08:31:37;27.00;99.90
20726;DHT22;10524;48.132;8.518;2022-09-06T08:34:03;27.00;99.90
20726;DHT22;10524;48.132;8.518;2022-09-06T08:36:29;27.50;99.90
20726;DHT22;10524;48.132;8.518;2022-09-06T08:38:56;27.90;99.90
20726;DHT22;10524;48.132;8.518;2022-09-06T08:41:29;28.00;99.90
20726;DHT22;10524;48.132;8.518;2022-09-06T08:44:08;27.90;99.90
20726;DHT22;10524;48.132;8.518;2022-09-06T08:46:41;27.70;99.90
20726;DHT22;10524;48.132;8.518;2022-09-06T08:49:08;27.40;99.90
20726;DHT22;10524;48.132;8.518;2022-09-06T09:00:03;26.00;99.90
20726;DHT22;10524;48.132;8.518;2022-09-06T09:05:16;24.90;99.90
20726;DHT22;10524;48.132;8.518;2022-09-06T09:13:29;23.20;99.90
20726;DHT22;10524;48.132;8.518;2022-09-06T09:15:57;22.80;99.90
20726;DHT22;10524;48.132;8.518;2022-09-06T09:18:27;22.60;99.90
20726;DHT22;10524;48.132;8.518;2022-09-06T09:20:54;22.20;99.90
20726;DHT22;10524;48.132;8.518;2022-09-06T09:23:20;21.90;99.90
20726;DHT22;10524;48.132;8.518;2022-09-06T09:25:47;21.70;99.90
20726;DHT22;10524;48.132;8.518;2022-09-06T09:28:20;21.50;99.90
20726;DHT22;10524;48.132;8.518;2022-09-06T09:30:52;21.20;99.90
20726;DHT22;10524;48.132;8.518;2022-09-06T09:33:33;20.80;99.90
20726;DHT22;10524;48.132;8.518;2022-09-06T09:36:26;20.40;99.90
20726;DHT22;10524;48.132;8.518;2022-09-06T09:38:51;20.20;99.90
20726;DHT22;10524;48.132;8.518;2022-09-06T09:41:28;20.00;99.90
20726;DHT22;10524;48.132;8.518;2022-09-06T09:44:00;19.80;99.90
20726;DHT22;10524;48.132;8.518;2022-09-06T09:46:34;19.70;99.90
20726;DHT22;10524;48.132;8.518;2022-09-06T09:49:12;19.50;99.90
20726;DHT22;10524;48.132;8.518;2022-09-06T09:51:41;19.50;99.90
20726;DHT22;10524;48.132;8.518;2022-09-06T09:54:12;19.30;99.90
20726;DHT22;10524;48.132;8.518;2022-09-06T09:56:51;19.20;99.90
20726;DHT22;10524;48.132;8.518;2022-09-06T09:59:18;18.90;99.90
20726;DHT22;10524;48.132;8.518;2022-09-06T10:01:44;18.80;99.90
20726;DHT22;10524;48.132;8.518;2022-09-06T10:04:20;18.70;99.90
20726;DHT22;10524;48.132;8.518;2022-09-06T10:06:48;18.70;99.90
20726;DHT22;10524;48.132;8.518;2022-09-06T10:09:19;18.70;99.90
20726;DHT22;10524;48.132;8.518;2022-09-06T10:11:56;18.90;99.90
20726;DHT22;10524;48.132;8.518;2022-09-06T10:14:24;18.90;99.90
20726;DHT22;10524;48.132;8.518;2022-09-06T10:16:50;18.90;99.90
20726;DHT22;10524;48.132;8.518;2022-09-06T10:19:43;19.20;99.90
20726;DHT22;10524;48.132;8.518;2022-09-06T10:22:25;19.90;99.90
20726;DHT22;10524;48.132;8.518;2022-09-06T10:27:26;21.90;99.90
20726;DHT22;10524;48.132;8.518;2022-09-06T10:30:05;22.80;99.90
20726;DHT22;10524;48.132;8.518;2022-09-06T10:32:45;23.70;99.90
20726;DHT22;10524;48.132;8.518;2022-09-06T10:35:25;24.10;99.90
20726;DHT22;10524;48.132;8.518;2022-09-06T10:40:33;25.10;99.90
20726;DHT22;10524;48.132;8.518;2022-09-06T10:43:02;25.40;99.90
20726;DHT22;10524;48.132;8.518;2022-09-06T10:51:04;25.90;99.90
20726;DHT22;10524;48.132;8.518;2022-09-06T10:53:52;26.30;99.90
20726;DHT22;10524;48.132;8.518;2022-09-06T10:56:31;26.40;99.90
20726;DHT22;10524;48.132;8.518;2022-09-06T10:59:21;27.00;99.90
20726;DHT22;10524;48.132;8.518;2022-09-06T11:02:07;28.10;99.90
20726;DHT22;10524;48.132;8.518;2022-09-06T11:04:37;28.80;99.90
20726;DHT22;10524;48.132;8.518;2022-09-06T11:09:46;28.60;99.90
20726;DHT22;10524;48.132;8.518;2022-09-06T11:15:09;28.10;99.90
20726;DHT22;10524;48.132;8.518;2022-09-06T11:17:44;28.10;99.90
20726;DHT22;10524;48.132;8.518;2022-09-06T11:20:22;28.50;99.90
20726;DHT22;10524;48.132;8.518;2022-09-06T11:28:27;32.20;99.90
20726;DHT22;10524;48.132;8.518;2022-09-06T11:30:56;33.40;99.90
20726;DHT22;10524;48.132;8.518;2022-09-06T11:33:26;33.90;99.90
20726;DHT22;10524;48.132;8.518;2022-09-06T11:35:53;33.00;99.90
20726;DHT22;10524;48.132;8.518;2022-09-06T11:38:38;32.30;99.90
20726;DHT22;10524;48.132;8.518;2022-09-06T11:41:13;32.80;99.90
20726;DHT22;10524;48.132;8.518;2022-09-06T11:43:50;32.80;99.90
20726;DHT22;10524;48.132;8.518;2022-09-06T11:51:41;33.80;99.90
20726;DHT22;10524;48.132;8.518;2022-09-06T11:56:39;32.90;99.90
20726;DHT22;10524;48.132;8.518;2022-09-06T12:04:20;32.90;99.90
20726;DHT22;10524;48.132;8.518;2022-09-06T12:07:07;32.40;99.90
20726;DHT22;10524;48.132;8.518;2022-09-06T12:09:39;31.50;99.90
20726;DHT22;10524;48.132;8.518;2022-09-06T12:12:05;30.60;99.90
20726;DHT22;10524;48.132;8.518;2022-09-06T12:14:41;29.80;99.90
20726;DHT22;10524;48.132;8.518;2022-09-06T12:19:46;28.50;99.90
20726;DHT22;10524;48.132;8.518;2022-09-06T12:28:07;26.70;99.90
20726;DHT22;10524;48.132;8.518;2022-09-06T12:30:41;26.40;99.90
20726;DHT22;10524;48.132;8.518;2022-09-06T12:33:23;26.10;99.90
20726;DHT22;10524;48.132;8.518;2022-09-06T12:35:48;26.20;99.90
20726;DHT22;10524;48.132;8.518;2022-09-06T12:38:16;26.10;99.90
20726;DHT22;10524;48.132;8.518;2022-09-06T12:40:48;26.10;99.90
20726;DHT22;10524;48.132;8.518;2022-09-06T12:43:17;26.10;99.90
20726;DHT22;10524;48.132;8.518;2022-09-06T12:45:45;25.90;99.90
20726;DHT22;10524;48.132;8.518;2022-09-06T12:51:11;25.40;99.90
20726;DHT22;10524;48.132;8.518;2022-09-06T12:54:01;25.40;99.90
20726;DHT22;10524;48.132;8.518;2022-09-06T12:56:29;25.50;99.90
20726;DHT22;10524;48.132;8.518;2022-09-06T12:59:29;25.40;99.90
20726;DHT22;10524;48.132;8.518;2022-09-06T13:02:05;25.00;99.90
20726;DHT22;10524;48.132;8.518;2022-09-06T13:04:42;24.90;99.90
20726;DHT22;10524;48.132;8.518;2022-09-06T13:07:14;24.70;99.90
20726;DHT22;10524;48.132;8.518;2022-09-06T13:09:44;24.90;99.90
20726;DHT22;10524;48.132;8.518;2022-09-06T13:12:22;24.90;99.90
20726;DHT22;10524;48.132;8.518;2022-09-06T13:14:59;24.90;99.90
20726;DHT22;10524;48.132;8.518;2022-09-06T13:17:29;25.30;99.90
20726;DHT22;10524;48.132;8.518;2022-09-06T13:19:56;25.20;99.90
20726;DHT22;10524;48.132;8.518;2022-09-06T13:22:41;25.10;99.90
20726;DHT22;10524;48.132;8.518;2022-09-06T13:27:47;24.90;99.90
20726;DHT22;10524;48.132;8.518;2022-09-06T13:30:38;24.80;99.90
20726;DHT22;10524;48.132;8.518;2022-09-06T13:33:25;24.90;99.90
20726;DHT22;10524;48.132;8.518;2022-09-06T13:38:39;25.60;99.90
20726;DHT22;10524;48.132;8.518;2022-09-06T13:41:41;26.20;99.90
20726;DHT22;10524;48.132;8.518;2022-09-06T13:46:35;27.70;99.90
20726;DHT22;10524;48.132;8.518;2022-09-06T13:49:01;27.00;99.90
20726;DHT22;10524;48.132;8.518;2022-09-06T13:51:27;26.40;99.90
20726;DHT22;10524;48.132;8.518;2022-09-06T13:56:30;25.40;99.90
20726;DHT22;10524;48.132;8.518;2022-09-06T13:58:55;25.40;99.90
20726;DHT22;10524;48.132;8.518;2022-09-06T14:01:21;25.30;99.90
20726;DHT22;10524;48.132;8.518;2022-09-06T14:03:47;25.00;99.90
20726;DHT22;10524;48.132;8.518;2022-09-06T14:06:15;24.90;99.90
20726;DHT22;10524;48.132;8.518;2022-09-06T14:08:41;25.10;99.90
20726;DHT22;10524;48.132;8.518;2022-09-06T14:11:07;25.50;99.90
20726;DHT22;10524;48.132;8.518;2022-09-06T14:13:33;25.80;99.90
20726;DHT22;10524;48.132;8.518;2022-09-06T14:15:58;26.10;99.90
20726;DHT22;10524;48.132;8.518;2022-09-06T14:18:24;26.50;99.90
20726;DHT22;10524;48.132;8.518;2022-09-06T14:20:54;27.70;99.90
20726;DHT22;10524;48.132;8.518;2022-09-06T14:23:21;27.10;99.90
20726;DHT22;10524;48.132;8.518;2022-09-06T14:25:47;27.00;99.90
20726;DHT22;10524;48.132;8.518;2022-09-06T14:28:13;26.80;99.90
20726;DHT22;10524;48.132;8.518;2022-09-06T14:30:39;26.70;99.90
20726;DHT22;10524;48.132;8.518;2022-09-06T14:33:04;27.50;99.90
20726;DHT22;10524;48.132;8.518;2022-09-06T14:35:31;28.50;99.90
20726;DHT22;10524;48.132;8.518;2022-09-06T14:37:57;29.10;99.90
20726;DHT22;10524;48.132;8.518;2022-09-06T14:40:23;28.20;99.90
20726;DHT22;10524;48.132;8.518;2022-09-06T14:42:48;26.90;99.90
20726;DHT22;10524;48.132;8.518;2022-09-06T14:45:14;26.40;99.90
20726;DHT22;10524;48.132;8.518;2022-09-06T14:47:39;26.00;99.90
20726;DHT22;10524;48.132;8.518;2022-09-06T14:50:06;25.30;99.90
20726;DHT22;10524;48.132;8.518;2022-09-06T14:52:31;24.80;99.90
20726;DHT22;10524;48.132;8.518;2022-09-06T14:54:57;24.60;99.90
20726;DHT22;10524;48.132;8.518;2022-09-06T14:57:23;24.40;99.90
20726;DHT22;10524;48.132;8.518;2022-09-06T14:59:48;24.20;99.90
20726;DHT22;10524;48.132;8.518;2022-09-06T15:02:14;24.30;99.90
20726;DHT22;10524;48.132;8.518;2022-09-06T15:04:40;24.30;99.90
20726;DHT22;10524;48.132;8.518;2022-09-06T15:07:06;24.30;99.90
20726;DHT22;10524;48.132;8.518;2022-09-06T15:09:33;24.20;99.90
20726;DHT22;10524;48.132;8.518;2022-09-06T15:11:58;24.40;99.90
20726;DHT22;10524;48.132;8.518;2022-09-06T15:14:26;24.60;99.90
20726;DHT22;10524;48.132;8.518;2022-09-06T15:16:55;24.60;99.90
20726;DHT22;10524;48.132;8.518;2022-09-06T15:19:24;25.00;99.90
20726;DHT22;10524;48.132;8.518;2022-09-06T15:21:52;25.40;99.90
20726;DHT22;10524;48.132;8.518;2022-09-06T15:24:18;25.60;99.90
20726;DHT22;10524;48.132;8.518;2022-09-06T15:26:45;25.30;99.90
20726;DHT22;10524;48.132;8.518;2022-09-06T15:29:12;25.00;99.90
20726;DHT22;10524;48.132;8.518;2022-09-06T15:31:39;25.10;99.90
20726;DHT22;10524;48.132;8.518;2022-09-06T15:34:06;25.70;99.90
20726;DHT22;10524;48.132;8.518;2022-09-06T15:36:33;26.20;99.90
20726;DHT22;10524;48.132;8.518;2022-09-06T15:39:00;27.10;99.90
20726;DHT22;10524;48.132;8.518;2022-09-06T15:41:28;27.00;99.90
20726;DHT22;10524;48.132;8.518;2022-09-06T15:44:01;26.90;99.90
20726;DHT22;10524;48.132;8.518;2022-09-06T15:46:55;27.30;99.90
20726;DHT22;10524;48.132;8.518;2022-09-06T15:49:27;27.10;99.90
20726;DHT22;10524;48.132;8.518;2022-09-06T15:51:53;26.80;99.90
20726;DHT22;10524;48.132;8.518;2022-09-06T15:54:20;26.70;99.90
20726;DHT22;10524;48.132;8.518;2022-09-06T15:57:08;26.50;99.90
20726;DHT22;10524;48.132;8.518;2022-09-06T15:59:34;26.10;99.90
20726;DHT22;10524;48.132;8.518;2022-09-06T16:02:00;25.60;99.90
20726;DHT22;10524;48.132;8.518;2022-09-06T16:04:26;25.10;99.90
20726;DHT22;10524;48.132;8.518;2022-09-06T16:06:52;24.60;99.90
20726;DHT22;10524;48.132;8.518;2022-09-06T16:09:17;24.30;99.90
20726;DHT22;10524;48.132;8.518;2022-09-06T16:11:43;24.40;99.90
20726;DHT22;10524;48.132;8.518;2022-09-06T16:14:11;24.30;99.90
20726;DHT22;10524;48.132;8.518;2022-09-06T16:16:37;24.30;99.90
20726;DHT22;10524;48.132;8.518;2022-09-06T16:19:04;24.00;99.90
20726;DHT22;10524;48.132;8.518;2022-09-06T16:21:31;23.70;99.90
20726;DHT22;10524;48.132;8.518;2022-09-06T16:24:02;23.40;99.90
20726;DHT22;10524;48.132;8.518;2022-09-06T16:26:34;23.10;99.90
20726;DHT22;10524;48.132;8.518;2022-09-06T16:29:00;22.80;99.90
20726;DHT22;10524;48.132;8.518;2022-09-06T16:31:26;22.70;99.90
20726;DHT22;10524;48.132;8.518;2022-09-06T16:33:53;22.50;99.90
20726;DHT22;10524;48.132;8.518;2022-09-06T16:36:20;22.20;99.90
20726;DHT22;10524;48.132;8.518;2022-09-06T16:38:47;22.00;99.90
20726;DHT22;10524;48.132;8.518;2022-09-06T16:41:16;21.80;99.90
20726;DHT22;10524;48.132;8.518;2022-09-06T16:43:43;21.80;99.90
20726;DHT22;10524;48.132;8.518;2022-09-06T16:46:09;22.00;99.90
20726;DHT22;10524;48.132;8.518;2022-09-06T16:48:35;22.00;99.90
20726;DHT22;10524;48.132;8.518;2022-09-06T16:51:30;22.00;99.90
20726;DHT22;10524;48.132;8.518;2022-09-06T16:53:57;21.80;99.90
20726;DHT22;10524;48.132;8.518;2022-09-06T16:56:25;21.70;99.90
20726;DHT22;10524;48.132;8.518;2022-09-06T16:58:55;21.50;99.90
20726;DHT22;10524;48.132;8.518;2022-09-06T17:01:22;21.40;99.90
20726;DHT22;10524;48.132;8.518;2022-09-06T17:03:49;21.20;99.90
20726;DHT22;10524;48.132;8.518;2022-09-06T17:06:16;21.10;99.90
20726;DHT22;10524;48.132;8.518;2022-09-06T17:08:42;20.90;99.90
20726;DHT22;10524;48.132;8.518;2022-09-06T17:11:15;20.80;99.90
20726;DHT22;10524;48.132;8.518;2022-09-06T17:13:42;20.60;99.90
20726;DHT22;10524;48.132;8.518;2022-09-06T17:16:08;20.40;99.90
20726;DHT22;10524;48.132;8.518;2022-09-06T17:18:52;20.30;99.90
20726;DHT22;10524;48.132;8.518;2022-09-06T17:21:22;20.20;99.90
20726;DHT22;10524;48.132;8.518;2022-09-06T17:23:48;20.00;99.90
20726;DHT22;10524;48.132;8.518;2022-09-06T17:26:15;19.90;99.90
20726;DHT22;10524;48.132;8.518;2022-09-06T17:28:41;19.80;99.90
20726;DHT22;10524;48.132;8.518;2022-09-06T17:31:07;19.80;99.90
20726;DHT22;10524;48.132;8.518;2022-09-06T17:33:34;19.70;99.90
20726;DHT22;10524;48.132;8.518;2022-09-06T17:36:09;19.50;99.90
20726;DHT22;10524;48.132;8.518;2022-09-06T17:38:37;19.40;99.90